Terminal Aerodrome Forecast
Issued by NWS

Home | Current Version | Previous Version | Text Only | Print | Product List | Glossary Off
Versions: 1 2 3 4 5 6 7 8 9 10 11 12 13 14 15 16 17 18 19 20 21 22 23 24 25 26 27 28 29 30 31 32 33 34 35 36 37 38

000
FTUS43 KGRB 170500
TAFRHI
TAF
KRHI 170522Z 1706/1806 31009G16KT P6SM -SHSN BKN014 OVC021
     FM171400 33007KT 6SM -SHSN SCT012 BKN025
      TEMPO 1714/1718 3SM -SHSN BKN012
     FM171800 32006KT P6SM -SHSN SCT020 BKN030
      TEMPO 1718/1722 OVC020
     FM172200 34005KT P6SM BKN035
     FM180300 36003KT P6SM SCT040=

USA.gov is the U.S. government's official web portal to all federal, state and local government web resources and services.